Time;durP1;ratioP1;P1;durP2;ratioP2;P2;SDS_P1;SDS_P2;PMS_P1;PMS_P2;Temp;Humidity;BMP_temperature;BMP_pressure;BME280_temperature;BME280_humidity;BME280_pressure;Samples;Min_cycle;Max_cycle;Signal;HPM_P1;HPM_P2
2022/02/11 00:02:18;;;;;;;10.63;8.83;;;;;;;4.98;100.00;99853.75;4927417;29;20198;-78
2022/02/11 00:07:33;;;;;;;11.73;8.87;;;;;;;4.98;100.00;99840.50;4897961;29;20240;-78
2022/02/11 00:10:03;;;;;;;10.37;8.60;;;;;;;4.95;100.00;99831.03;4927301;29;20230;-77
2022/02/11 00:12:31;;;;;;;9.60;8.60;;;;;;;4.94;100.00;99832.06;4927398;29;20214;-79
2022/02/11 00:15:03;;;;;;;10.67;9.17;;;;;;;4.96;100.00;99819.41;4910513;29;20194;-79
2022/02/11 00:17:30;;;;;;;12.20;9.90;;;;;;;4.96;100.00;99815.94;4911432;29;20182;-76
2022/02/11 00:19:57;;;;;;;13.17;10.07;;;;;;;4.89;100.00;99810.53;4927062;29;20198;-77
2022/02/11 00:22:24;;;;;;;13.50;10.47;;;;;;;4.86;100.00;99817.00;4910163;29;20190;-77
2022/02/11 00:24:54;;;;;;;12.10;10.07;;;;;;;4.85;100.00;99819.84;4910499;29;20190;-78
2022/02/11 00:37:55;;;;;;;14.73;10.67;;;;;;;4.67;100.00;99817.47;4926973;29;20277;-80
2022/02/11 01:04:30;;;;;;;11.83;9.40;;;;;;;4.47;100.00;99818.97;4948487;29;20245;-77
2022/02/11 01:06:57;;;;;;;11.07;9.87;;;;;;;4.44;100.00;99809.50;4929390;29;20190;-79
2022/02/11 01:09:24;;;;;;;12.57;9.50;;;;;;;4.42;100.00;99805.41;4947106;29;20205;-77
2022/02/11 01:11:54;;;;;;;12.27;9.97;;;;;;;4.40;100.00;99802.91;4930099;29;20254;-80
2022/02/11 01:17:12;;;;;;;11.40;9.37;;;;;;;4.32;100.00;99808.28;4948960;29;20193;-76
2022/02/11 01:36:20;;;;;;;12.27;9.20;;;;;;;4.21;100.00;99776.00;4933943;29;20196;-78
2022/02/11 01:52:21;;;;;;;11.80;9.23;;;;;;;3.59;100.00;99762.75;4933886;29;20190;-77
2022/02/11 01:58:05;;;;;;;11.17;9.80;;;;;;;3.40;100.00;99766.63;4947928;29;20209;-77
2022/02/11 02:17:32;;;;;;;11.20;8.80;;;;;;;2.90;100.00;99777.47;4889156;29;20268;-77
2022/02/11 02:20:24;;;;;;;11.40;9.40;;;;;;;2.79;100.00;99767.22;4890717;29;20635;-77
2022/02/11 02:33:58;;;;;;;12.17;9.50;;;;;;;2.57;100.00;99765.22;4889959;29;20175;-79
2022/02/11 02:50:36;;;;;;;11.67;9.00;;;;;;;2.09;100.00;99779.22;4889998;29;20569;-76
2022/02/11 02:58:33;;;;;;;10.87;8.90;;;;;;;1.97;100.00;99776.06;4890154;29;20188;-77
2022/02/11 03:01:47;;;;;;;12.53;8.60;;;;;;;1.93;100.00;99777.38;4877972;29;20590;-78
2022/02/11 03:15:49;;;;;;;10.00;8.20;;;;;;;1.90;100.00;99761.84;4893400;29;20231;-76
2022/02/11 03:34:52;;;;;;;10.23;7.60;;;;;;;1.78;100.00;99757.81;4892874;29;20259;-77
2022/02/11 03:49:17;;;;;;;8.00;6.47;;;;;;;1.69;100.00;99761.44;4871695;29;20295;-76
2022/02/11 04:53:12;;;;;;;7.97;6.33;;;;;;;1.91;100.00;99758.22;4876711;29;20260;-77
2022/02/11 04:55:29;;;;;;;7.50;6.27;;;;;;;1.91;100.00;99760.88;4874468;29;20227;-77
2022/02/11 05:00:43;;;;;;;6.70;6.00;;;;;;;1.98;100.00;99745.16;4873903;29;20195;-78
2022/02/11 05:03:14;;;;;;;7.77;6.07;;;;;;;1.88;100.00;99740.03;4875711;29;20247;-76
2022/02/11 05:05:52;;;;;;;7.13;5.87;;;;;;;1.91;100.00;99738.91;4875501;29;20200;-77
2022/02/11 05:08:21;;;;;;;7.60;5.83;;;;;;;1.91;100.00;99736.25;4891229;29;20527;-77
2022/02/11 05:10:49;;;;;;;7.80;5.90;;;;;;;1.97;100.00;99728.47;4890046;29;20562;-79
2022/02/11 05:13:16;;;;;;;7.03;5.80;;;;;;;2.00;100.00;99735.28;4890764;29;20223;-78
2022/02/11 05:15:45;;;;;;;6.70;5.87;;;;;;;2.03;100.00;99727.03;4873957;29;20503;-76
2022/02/11 05:18:12;;;;;;;7.23;6.07;;;;;;;2.02;100.00;99712.97;4890790;29;20192;-76
2022/02/11 05:20:44;;;;;;;7.80;6.00;;;;;;;2.09;100.00;99719.28;4873813;29;20194;-76
2022/02/11 05:23:14;;;;;;;8.37;5.83;;;;;;;2.14;100.00;99732.00;4873698;29;20184;-77
2022/02/11 05:25:44;;;;;;;6.70;6.10;;;;;;;2.22;100.00;99742.59;4873712;29;20235;-77
2022/02/11 05:28:15;;;;;;;7.37;6.67;;;;;;;2.27;100.00;99753.50;4890503;29;20184;-77
2022/02/11 05:30:42;;;;;;;10.67;8.17;;;;;;;2.30;100.00;99739.09;4890730;29;20196;-76
2022/02/11 05:33:12;;;;;;;10.33;9.23;;;;;;;2.34;100.00;99722.75;4901574;23;20282;-76
2022/02/11 05:35:39;;;;;;;7.80;7.00;;;;;;;2.40;100.00;99722.09;4911575;29;20258;-77
2022/02/11 05:38:07;;;;;;;7.27;6.13;;;;;;;2.42;100.00;99708.72;4928884;29;20194;-77
2022/02/11 05:40:35;;;;;;;8.37;5.97;;;;;;;2.40;100.00;99693.00;4928584;29;20218;-77
2022/02/11 05:43:03;;;;;;;8.27;5.97;;;;;;;2.47;100.00;99701.13;4913373;29;20282;-79
2022/02/11 05:45:30;;;;;;;6.83;5.87;;;;;;;2.48;100.00;99694.81;4928270;29;20218;-77
2022/02/11 05:47:57;;;;;;;7.27;5.93;;;;;;;2.52;100.00;99709.38;4912492;29;20246;-77
2022/02/11 05:50:25;;;;;;;6.10;5.50;;;;;;;2.55;100.00;99711.69;4927488;29;20194;-76
2022/02/11 05:53:00;;;;;;;8.10;6.00;;;;;;;2.53;100.00;99719.78;4913092;29;20221;-76
2022/02/11 05:55:28;;;;;;;7.20;6.10;;;;;;;2.54;100.00;99717.97;4911951;29;20198;-77
2022/02/11 05:57:56;;;;;;;7.20;5.40;;;;;;;2.55;100.00;99714.34;4928432;29;20193;-77
2022/02/11 06:00:26;;;;;;;7.37;5.80;;;;;;;2.55;100.00;99709.88;4928757;29;20222;-77
2022/02/11 06:02:53;;;;;;;7.13;6.00;;;;;;;2.64;100.00;99710.69;4911866;29;20214;-76
2022/02/11 06:05:21;;;;;;;8.07;6.03;;;;;;;2.65;100.00;99696.47;4911511;29;20203;-76
2022/02/11 06:07:47;;;;;;;7.37;6.43;;;;;;;2.67;100.00;99699.75;4929150;29;20254;-77
2022/02/11 06:10:14;;;;;;;16.50;9.60;;;;;;;2.70;100.00;99690.69;4928938;29;20610;-76
2022/02/11 06:12:43;;;;;;;11.13;7.47;;;;;;;2.70;100.00;99685.38;4926119;29;20228;-76
2022/02/11 06:15:12;;;;;;;7.90;6.50;;;;;;;2.70;100.00;99680.94;4913308;29;20178;-76
2022/02/11 06:17:40;;;;;;;8.27;6.60;;;;;;;2.79;100.00;99679.91;4928775;29;20222;-76
2022/02/11 06:20:09;;;;;;;8.67;6.07;;;;;;;2.85;100.00;99675.75;4928510;29;20225;-77
2022/02/11 06:22:35;;;;;;;6.87;6.13;;;;;;;2.85;100.00;99655.41;4896918;29;20210;-77
2022/02/11 06:25:04;;;;;;;8.23;5.87;;;;;;;2.97;100.00;99672.59;4912524;29;20281;-77
2022/02/11 06:27:30;;;;;;;7.07;6.20;;;;;;;3.02;100.00;99678.19;4911929;29;20198;-77
2022/02/11 06:30:13;;;;;;;8.67;6.20;;;;;;;3.18;100.00;99693.19;4927325;29;20588;-77
2022/02/11 06:32:40;;;;;;;6.80;5.70;;;;;;;3.25;100.00;99688.88;4927801;29;20221;-77
2022/02/11 06:35:11;;;;;;;6.30;5.63;;;;;;;3.36;100.00;99680.53;4927556;29;20221;-77
2022/02/11 06:37:45;;;;;;;7.53;5.60;;;;;;;3.46;100.00;99694.41;4927195;29;20290;-77
2022/02/11 06:40:14;;;;;;;7.83;5.97;;;;;;;3.57;100.00;99700.31;4928280;29;20241;-77
2022/02/11 06:42:41;;;;;;;6.30;5.70;;;;;;;3.67;100.00;99714.19;4896019;29;20199;-77
2022/02/11 06:45:09;;;;;;;6.57;5.83;;;;;;;3.77;100.00;99717.47;4911268;29;20186;-77
2022/02/11 06:47:36;;;;;;;8.03;5.83;;;;;;;3.85;100.00;99720.88;4895608;29;20601;-77
2022/02/11 06:50:06;;;;;;;7.23;5.43;;;;;;;3.87;100.00;99713.56;4927803;29;20186;-77
2022/02/11 06:52:33;;;;;;;7.83;5.57;;;;;;;3.93;100.00;99720.00;4928196;29;20198;-79
2022/02/11 06:55:00;;;;;;;7.93;6.20;;;;;;;4.01;100.00;99737.69;4912267;29;20217;-80
2022/02/11 06:57:27;;;;;;;7.43;5.50;;;;;;;4.08;100.00;99741.28;4912718;29;20190;-78
2022/02/11 06:59:57;;;;;;;7.70;5.53;;;;;;;4.15;100.00;99747.56;4928208;29;20183;-76
2022/02/11 07:02:30;;;;;;;8.57;5.70;;;;;;;4.23;100.00;99742.19;4911112;29;20824;-76
2022/02/11 07:04:59;;;;;;;7.10;5.93;;;;;;;4.32;100.00;99744.63;4911229;29;20579;-76
2022/02/11 07:07:26;;;;;;;8.17;5.73;;;;;;;4.46;100.00;99737.72;4931941;23;20289;-77
2022/02/11 07:09:54;;;;;;;7.23;5.90;;;;;;;4.61;100.00;99730.63;4894691;29;20213;-77
2022/02/11 07:12:21;;;;;;;9.57;5.70;;;;;;;4.70;100.00;99736.69;4910082;29;20265;-79
2022/02/11 07:14:48;;;;;;;7.00;6.00;;;;;;;4.74;100.00;99740.63;4894435;29;20218;-77
2022/02/11 07:17:17;;;;;;;9.93;6.60;;;;;;;4.82;100.00;99744.03;4910327;29;20221;-76
2022/02/11 07:19:44;;;;;;;7.43;5.73;;;;;;;4.97;100.00;99738.75;4927134;29;20211;-78
2022/02/11 07:22:13;;;;;;;7.67;6.37;;;;;;;5.07;100.00;99738.50;4926505;29;20186;-77
2022/02/11 07:24:43;;;;;;;9.20;6.53;;;;;;;5.23;100.00;99740.97;4926799;29;20191;-79
2022/02/11 07:27:12;;;;;;;11.13;7.00;;;;;;;5.30;100.00;99750.69;4925667;29;20250;-81
2022/02/11 07:29:38;;;;;;;10.10;6.10;;;;;;;5.36;100.00;99758.94;4925250;29;20250;-77
2022/02/11 07:32:05;;;;;;;8.40;6.43;;;;;;;5.38;100.00;99759.56;4923114;29;20392;-77
2022/02/11 07:34:32;;;;;;;8.43;6.27;;;;;;;5.47;100.00;99755.81;4921199;29;20554;-80
2022/02/11 07:36:59;;;;;;;9.13;6.30;;;;;;;5.60;100.00;99762.13;4904344;29;20182;-78
2022/02/11 07:39:47;;;;;;;12.17;10.07;;;;;;;5.64;100.00;99752.81;4908380;29;20186;-77
2022/02/11 07:42:14;;;;;;;8.97;7.13;;;;;;;5.70;100.00;99762.69;4922003;29;20214;-78
2022/02/11 07:44:40;;;;;;;8.43;6.40;;;;;;;5.71;100.00;99768.81;4922943;29;20531;-78
2022/02/11 07:47:07;;;;;;;6.77;6.07;;;;;;;5.76;100.00;99774.41;4909151;29;20289;-78
2022/02/11 07:49:35;;;;;;;8.57;5.90;;;;;;;5.76;100.00;99772.59;4926489;29;20214;-79
2022/02/11 07:52:02;;;;;;;10.40;8.07;;;;;;;5.78;100.00;99783.03;4908165;29;20222;-77
2022/02/11 07:54:30;;;;;;;9.33;7.23;;;;;;;5.74;100.00;99769.28;4893839;29;20225;-79
2022/02/11 07:56:57;;;;;;;8.50;6.60;;;;;;;5.77;100.00;99768.09;4926448;29;20190;-77
2022/02/11 07:59:24;;;;;;;9.30;6.47;;;;;;;5.71;100.00;99766.16;4926159;29;20272;-76
2022/02/11 08:01:52;;;;;;;9.13;7.50;;;;;;;5.80;100.00;99770.38;4926742;29;20190;-78
2022/02/11 08:04:19;;;;;;;10.27;7.60;;;;;;;5.81;100.00;99769.38;4927217;29;20670;-82
2022/02/11 08:06:49;;;;;;;11.53;7.93;;;;;;;5.90;100.00;99770.94;4910626;29;20598;-77
2022/02/11 08:09:16;;;;;;;9.87;7.17;;;;;;;5.99;100.00;99776.97;4926790;29;20207;-78
2022/02/11 08:11:43;;;;;;;9.57;7.57;;;;;;;5.99;100.00;99766.34;4926297;29;20275;-78
2022/02/11 08:14:09;;;;;;;9.57;7.10;;;;;;;6.11;100.00;99778.16;4910046;29;20280;-80
2022/02/11 08:16:39;;;;;;;10.67;6.87;;;;;;;6.19;100.00;99781.53;4926540;29;20186;-78
2022/02/11 08:19:06;;;;;;;7.27;6.23;;;;;;;6.28;100.00;99782.22;4926835;29;20587;-76
2022/02/11 08:21:34;;;;;;;7.27;6.07;;;;;;;6.42;100.00;99786.69;4927203;29;20229;-77
2022/02/11 08:24:01;;;;;;;8.97;6.97;;;;;;;6.54;100.00;99784.34;4910749;29;20583;-77
2022/02/11 08:26:29;;;;;;;7.77;6.93;;;;;;;6.73;100.00;99780.22;4910136;29;20260;-80
2022/02/11 08:28:56;;;;;;;7.03;6.30;;;;;;;6.90;100.00;99782.44;4909726;29;20197;-79
2022/02/11 08:31:24;;;;;;;7.43;5.77;;;;;;;6.97;100.00;99774.47;4925816;29;20198;-76
2022/02/11 08:33:52;;;;;;;10.23;7.13;;;;;;;7.11;100.00;99786.88;4926044;29;20221;-77
2022/02/11 08:36:21;;;;;;;7.83;5.87;;;;;;;7.33;100.00;99785.81;4910395;29;20190;-77
2022/02/11 08:38:48;;;;;;;9.60;6.53;;;;;;;7.63;100.00;99775.75;4910657;29;20225;-78
2022/02/11 08:41:15;;;;;;;11.83;7.63;;;;;;;7.83;100.00;99781.19;4926944;29;20199;-79
2022/02/11 08:43:41;;;;;;;7.80;6.50;;;;;;;7.94;100.00;99788.63;4926407;29;20186;-78
2022/02/11 08:46:08;;;;;;;6.77;6.07;;;;;;;8.02;100.00;99775.13;4909837;29;20191;-77
2022/02/11 08:48:35;;;;;;;7.43;5.80;;;;;;;8.15;100.00;99777.84;4925930;29;20191;-78
2022/02/11 08:51:02;;;;;;;8.03;6.10;;;;;;;8.34;100.00;99781.63;4926164;29;20557;-78
2022/02/11 08:53:35;;;;;;;9.07;6.63;;;;;;;8.59;100.00;99784.53;4926265;29;20215;-80
2022/02/11 08:56:05;;;;;;;11.23;7.10;;;;;;;8.72;100.00;99787.25;4909811;29;20182;-77
2022/02/11 08:58:33;;;;;;;10.57;7.37;;;;;;;8.72;100.00;99795.25;4925457;29;20199;-80
2022/02/11 09:01:00;;;;;;;9.00;5.80;;;;;;;8.76;100.00;99799.16;4893885;29;20200;-77
2022/02/11 09:03:26;;;;;;;7.97;6.40;;;;;;;8.68;100.00;99802.00;4909314;29;20183;-77
2022/02/11 09:05:53;;;;;;;8.53;5.70;;;;;;;8.68;100.00;99805.50;4926529;29;20254;-78
2022/02/11 09:08:22;;;;;;;9.17;5.90;;;;;;;8.81;100.00;99800.22;4910300;29;20187;-78
2022/02/11 09:10:51;;;;;;;8.17;6.33;;;;;;;8.83;100.00;99805.31;4910441;29;20206;-77
2022/02/11 09:13:22;;;;;;;9.00;5.90;;;;;;;8.85;100.00;99808.63;4926334;29;20233;-77
2022/02/11 09:15:52;;;;;;;10.07;6.10;;;;;;;8.84;100.00;99810.47;4925305;29;20186;-77
2022/02/11 09:18:19;;;;;;;7.67;5.60;;;;;;;8.88;100.00;99815.41;4910001;29;20207;-78
2022/02/11 09:20:48;;;;;;;7.83;5.53;;;;;;;8.78;100.00;99816.63;4926387;29;20242;-76
2022/02/11 09:23:16;;;;;;;10.00;6.20;;;;;;;8.82;100.00;99817.03;4926117;29;20214;-77
2022/02/11 09:25:43;;;;;;;7.93;6.20;;;;;;;8.74;100.00;99815.38;4926250;29;20221;-78
2022/02/11 09:28:10;;;;;;;7.83;5.70;;;;;;;8.72;100.00;99821.97;4909222;29;20229;-81
2022/02/11 09:30:37;;;;;;;8.20;6.03;;;;;;;8.74;100.00;99822.56;4925385;29;20201;-77
2022/02/11 09:33:06;;;;;;;7.77;6.23;;;;;;;8.87;100.00;99830.59;4910181;29;20209;-77
2022/02/11 09:35:32;;;;;;;7.77;6.43;;;;;;;8.89;100.00;99841.94;4925401;29;20225;-78
2022/02/11 09:37:59;;;;;;;9.67;5.97;;;;;;;8.98;100.00;99850.56;4927516;29;20219;-80
2022/02/11 09:40:27;;;;;;;9.30;6.40;;;;;;;9.00;100.00;99861.88;4923280;29;20246;-78
2022/02/11 09:42:55;;;;;;;8.30;6.13;;;;;;;9.20;100.00;99850.16;4905587;29;20289;-80
2022/02/11 09:45:25;;;;;;;8.43;6.07;;;;;;;9.55;100.00;99861.50;4923711;29;20189;-79
2022/02/11 09:47:52;;;;;;;10.13;6.20;;;;;;;9.84;100.00;99846.84;4907574;29;20194;-77
2022/02/11 09:50:22;;;;;;;10.73;6.37;;;;;;;10.27;100.00;99862.34;4923957;29;20657;-82
2022/02/11 09:52:51;;;;;;;8.37;6.23;;;;;;;10.67;100.00;99873.75;4924129;29;20195;-81
2022/02/11 09:55:34;;;;;;;10.90;6.37;;;;;;;11.01;100.00;99866.09;4924056;29;20282;-77
2022/02/11 09:58:13;;;;;;;6.60;5.47;;;;;;;11.38;100.00;99871.63;4907818;29;20182;-78
2022/02/11 10:00:44;;;;;;;6.00;4.50;;;;;;;11.65;100.00;99870.34;4904249;29;20198;-77
2022/02/11 10:03:15;;;;;;;6.23;4.40;;;;;;;11.72;100.00;99871.13;4872758;29;20235;-77
2022/02/11 10:05:49;;;;;;;3.80;3.40;;;;;;;11.66;100.00;99869.31;4921430;29;20202;-77
2022/02/11 10:08:16;;;;;;;4.50;3.43;;;;;;;11.60;100.00;99869.34;4905357;29;20242;-78
2022/02/11 10:10:47;;;;;;;3.67;3.07;;;;;;;11.57;100.00;99872.50;4907114;29;20214;-77
2022/02/11 10:13:19;;;;;;;2.77;2.57;;;;;;;11.62;100.00;99873.44;4907855;29;20210;-78
2022/02/11 10:15:54;;;;;;;4.77;2.67;;;;;;;11.58;100.00;99866.06;4923196;29;20209;-77
2022/02/11 10:18:26;;;;;;;4.43;2.80;;;;;;;11.67;100.00;99873.63;4923907;29;20181;-77
2022/02/11 10:21:00;;;;;;;3.70;2.57;;;;;;;11.40;100.00;99875.72;4923398;29;20266;-77
2022/02/11 10:23:41;;;;;;;2.30;2.03;;;;;;;11.16;100.00;99873.81;4907136;29;20205;-79
2022/02/11 10:26:13;;;;;;;2.33;1.97;;;;;;;10.95;100.00;99874.19;4907247;29;20701;-78
2022/02/11 10:28:43;;;;;;;2.47;2.13;;;;;;;10.88;100.00;99873.41;4907124;29;20217;-77
2022/02/11 10:31:18;;;;;;;1.80;1.70;;;;;;;10.78;100.00;99871.19;4907908;29;20218;-79
2022/02/11 10:34:06;;;;;;;2.00;1.70;;;;;;;10.81;100.00;99867.28;4915421;29;20285;-78
2022/02/11 10:36:48;;;;;;;1.53;1.43;;;;;;;10.92;100.00;99862.03;4921869;29;20186;-77
2022/02/11 10:39:26;;;;;;;1.50;1.33;;;;;;;10.88;100.00;99870.72;4902884;29;20571;-79
2022/02/11 10:42:06;;;;;;;1.57;1.47;;;;;;;10.79;100.00;99870.16;4923100;29;20186;-80
2022/02/11 10:44:36;;;;;;;2.20;1.53;;;;;;;10.80;100.00;99863.75;4899209;29;20190;-78
2022/02/11 10:47:07;;;;;;;1.30;1.20;;;;;;;10.74;100.00;99867.28;4890045;29;20214;-78
2022/02/11 10:49:42;;;;;;;1.83;1.40;;;;;;;10.83;100.00;99870.53;4912269;29;20610;-78
2022/02/11 10:52:17;;;;;;;1.70;1.27;;;;;;;10.73;100.00;99868.31;4924295;29;20192;-78
2022/02/11 10:54:46;;;;;;;1.20;1.10;;;;;;;10.72;100.00;99868.56;4890008;29;20206;-79
2022/02/11 10:57:14;;;;;;;1.83;1.53;;;;;;;10.48;100.00;99875.47;4906864;29;20191;-78
2022/02/11 10:59:44;;;;;;;1.20;1.10;;;;;;;10.52;100.00;99884.72;4886754;29;20190;-79
2022/02/11 11:02:21;;;;;;;0.70;0.70;;;;;;;10.25;100.00;99894.72;4924140;29;20191;-77
2022/02/11 11:04:49;;;;;;;0.67;0.67;;;;;;;10.14;100.00;99884.63;4923199;29;20253;-77
2022/02/11 11:07:22;;;;;;;0.90;0.70;;;;;;;10.15;100.00;99884.47;4897573;29;20239;-78
2022/02/11 11:10:13;;;;;;;0.70;0.70;;;;;;;10.02;100.00;99897.03;4921550;29;20200;-77
2022/02/11 11:12:53;;;;;;;0.73;0.50;;;;;;;9.98;100.00;99887.78;4903561;29;20546;-81
2022/02/11 11:15:22;;;;;;;0.50;0.50;;;;;;;9.86;100.00;99890.25;4904814;29;20228;-78
2022/02/11 11:17:49;;;;;;;0.90;0.70;;;;;;;9.83;100.00;99885.31;4905969;29;20190;-81
2022/02/11 11:20:19;;;;;;;1.43;0.50;;;;;;;9.87;100.00;99889.22;4905503;29;20190;-77
2022/02/11 11:22:51;;;;;;;1.37;0.40;;;;;;;9.80;100.00;99900.97;4909010;29;20273;-78
2022/02/11 11:25:18;;;;;;;3.50;0.67;;;;;;;9.98;100.00;99891.28;4909278;29;20191;-81
2022/02/11 11:27:56;;;;;;;1.30;0.43;;;;;;;9.97;100.00;99896.81;4908879;29;20621;-79
2022/02/11 11:30:24;;;;;;;0.70;0.53;;;;;;;9.99;100.00;99902.78;4889466;29;20206;-78
2022/02/11 11:33:06;;;;;;;0.40;0.40;;;;;;;10.10;100.00;99915.53;4923242;29;20234;-79
2022/02/11 11:35:36;;;;;;;0.50;0.50;;;;;;;10.12;100.00;99916.16;4924802;29;20191;-79
2022/02/11 11:38:11;;;;;;;0.37;0.30;;;;;;;10.09;100.00;99912.03;4886742;29;20215;-80
2022/02/11 11:40:38;;;;;;;0.50;0.50;;;;;;;10.18;100.00;99918.00;4905738;29;20529;-78
2022/02/11 11:43:33;;;;;;;0.97;0.40;;;;;;;10.33;100.00;99920.44;4905870;29;20206;-78
2022/02/11 11:46:15;;;;;;;0.30;0.30;;;;;;;10.12;100.00;99924.97;4888949;29;20184;-79
2022/02/11 11:49:03;;;;;;;0.50;0.50;;;;;;;10.32;100.00;99934.84;4905684;29;20179;-80
2022/02/11 11:51:50;;;;;;;1.00;0.40;;;;;;;10.32;99.77;99954.44;4887922;29;20183;-80
2022/02/11 11:54:22;;;;;;;0.40;0.40;;;;;;;10.45;96.65;99957.06;4904206;29;20226;-78
2022/02/11 11:57:14;;;;;;;0.30;0.30;;;;;;;10.54;93.66;99949.66;4888870;29;20199;-78
2022/02/11 11:59:46;;;;;;;0.60;0.30;;;;;;;10.45;92.82;99951.72;4901237;29;20186;-82
2022/02/11 12:02:20;;;;;;;0.40;0.40;;;;;;;10.29;90.11;99951.34;4924392;29;20182;-77
2022/02/11 12:04:50;;;;;;;0.30;0.30;;;;;;;10.28;90.43;99960.41;4908037;29;20210;-78
2022/02/11 12:07:21;;;;;;;0.30;0.30;;;;;;;10.03;90.51;99961.03;4924707;29;20249;-78
2022/02/11 12:09:51;;;;;;;0.50;0.50;;;;;;;10.02;91.90;99977.31;4907952;29;20183;-77
2022/02/11 12:12:20;;;;;;;1.87;0.43;;;;;;;9.71;93.96;99978.75;4924688;29;20254;-77
2022/02/11 12:14:50;;;;;;;0.40;0.40;;;;;;;9.75;93.65;100007.81;4908323;29;20194;-78
2022/02/11 12:17:18;;;;;;;0.30;0.30;;;;;;;9.71;93.87;99953.84;4924166;29;20179;-78
2022/02/11 12:19:46;;;;;;;0.50;0.40;;;;;;;9.68;95.11;99999.75;4924311;29;20199;-78
2022/02/11 12:22:14;;;;;;;0.67;0.40;;;;;;;9.50;95.60;99997.69;4924292;29;20191;-82
2022/02/11 12:27:45;;;;;;;0.40;0.40;;;;;;;9.41;97.69;100019.47;4901000;29;20679;-77
2022/02/11 12:30:17;;;;;;;0.40;0.40;;;;;;;9.28;97.18;100007.72;4889777;29;20475;-78
2022/02/11 12:32:46;;;;;;;0.50;0.50;;;;;;;9.38;97.18;100010.00;4888325;29;20211;-81
2022/02/11 12:35:23;;;;;;;0.50;0.50;;;;;;;9.30;98.13;100012.88;4888881;29;20220;-78
2022/02/11 12:37:50;;;;;;;0.70;0.60;;;;;;;9.37;97.98;100027.09;4902165;29;20269;-79
2022/02/11 12:40:28;;;;;;;0.50;0.50;;;;;;;9.33;96.62;100007.13;4890611;29;20293;-78
2022/02/11 12:43:00;;;;;;;0.50;0.50;;;;;;;9.32;95.83;100034.88;4923306;29;20221;-77
2022/02/11 12:45:35;;;;;;;0.60;0.60;;;;;;;9.12;95.78;100013.44;4891337;29;20595;-79
2022/02/11 12:48:04;;;;;;;0.60;0.60;;;;;;;9.24;95.33;100013.66;4906701;29;20182;-78
2022/02/11 12:50:38;;;;;;;0.80;0.80;;;;;;;9.21;95.45;100014.06;4924614;29;20282;-81
2022/02/11 12:53:07;;;;;;;0.70;0.70;;;;;;;9.19;94.83;100010.78;4923529;29;20261;-77
2022/02/11 12:55:36;;;;;;;0.60;0.60;;;;;;;9.08;93.16;100019.38;4907724;29;20189;-78
2022/02/11 12:58:06;;;;;;;1.10;1.00;;;;;;;9.29;90.47;100020.06;4908608;29;20195;-80
2022/02/11 13:00:36;;;;;;;1.50;0.60;;;;;;;9.24;88.73;100027.84;4905898;29;20235;-81
2022/02/11 13:03:11;;;;;;;0.70;0.70;;;;;;;8.98;87.26;100038.47;4889785;29;20176;-81
2022/02/11 13:05:44;;;;;;;0.83;0.83;;;;;;;9.06;84.20;100021.41;4873629;29;20226;-79
2022/02/11 13:08:31;;;;;;;0.90;0.70;;;;;;;9.03;83.45;100035.19;4890103;29;20529;-81
2022/02/11 13:10:59;;;;;;;0.60;0.60;;;;;;;9.00;81.26;100059.66;4905889;29;20271;-77
2022/02/11 13:13:26;;;;;;;2.23;0.70;;;;;;;8.93;82.08;100043.56;4873652;29;20268;-79
2022/02/11 13:15:54;;;;;;;0.73;0.70;;;;;;;9.01;78.32;100066.63;4905501;29;20584;-82
2022/02/11 13:18:23;;;;;;;0.90;0.60;;;;;;;8.96;80.33;100061.09;4905453;29;20600;-81
2022/02/11 13:20:52;;;;;;;0.50;0.50;;;;;;;9.03;79.79;100070.75;4888782;29;20215;-80
2022/02/11 13:23:21;;;;;;;0.83;0.60;;;;;;;8.82;78.91;100062.84;4888940;29;20488;-77
2022/02/11 13:25:48;;;;;;;0.90;0.60;;;;;;;8.78;79.16;100067.75;4908364;29;20214;-77
2022/02/11 13:28:16;;;;;;;0.80;0.80;;;;;;;8.60;81.06;100080.81;4907214;29;20498;-79
2022/02/11 13:30:46;;;;;;;0.60;0.60;;;;;;;8.64;80.33;100090.06;4891101;29;20270;-82
2022/02/11 13:33:18;;;;;;;0.97;0.80;;;;;;;8.53;80.31;100082.63;4923640;29;20210;-78
2022/02/11 13:35:44;;;;;;;0.70;0.70;;;;;;;8.59;80.54;100084.47;4923584;29;20191;-79
2022/02/11 13:38:11;;;;;;;0.70;0.70;;;;;;;8.35;81.73;100084.97;4923676;29;20206;-80
2022/02/11 13:40:38;;;;;;;0.70;0.70;;;;;;;8.47;80.72;100083.38;4923957;29;20201;-78
2022/02/11 13:43:06;;;;;;;0.80;0.80;;;;;;;8.36;80.23;100095.41;4907041;29;20541;-77
2022/02/11 13:45:52;;;;;;;0.60;0.60;;;;;;;8.35;77.53;100100.97;4907164;29;20249;-82
2022/02/11 13:48:20;;;;;;;2.17;0.70;;;;;;;8.29;78.85;100097.22;4922841;29;20217;-81
2022/02/11 13:51:05;;;;;;;1.57;0.60;;;;;;;8.34;79.01;100102.00;4906621;29;20591;-79
2022/02/11 13:53:36;;;;;;;0.60;0.60;;;;;;;8.31;79.17;100111.19;4906861;29;20221;-81
2022/02/11 13:56:05;;;;;;;2.50;0.80;;;;;;;8.32;76.17;100110.19;4924038;29;20192;-78
2022/02/11 13:58:33;;;;;;;1.30;0.80;;;;;;;8.11;78.09;100109.34;4923543;29;20187;-77
2022/02/11 14:01:06;;;;;;;0.70;0.70;;;;;;;8.09;79.62;100114.03;4907128;29;20190;-77
2022/02/11 14:03:33;;;;;;;1.00;0.90;;;;;;;8.02;80.39;100102.50;4906461;29;20226;-81
2022/02/11 14:06:01;;;;;;;0.70;0.70;;;;;;;8.01;79.88;100114.19;4923368;29;20242;-77
2022/02/11 14:08:48;;;;;;;0.77;0.77;;;;;;;8.09;80.74;100125.56;4907155;29;20183;-77
2022/02/11 14:11:19;;;;;;;3.60;0.80;;;;;;;7.93;75.21;100120.50;4907165;29;20182;-77
2022/02/11 14:13:47;;;;;;;0.80;0.80;;;;;;;8.02;74.90;100131.84;4907759;29;20229;-79
2022/02/11 14:16:16;;;;;;;0.97;0.73;;;;;;;8.03;75.32;100134.31;4907464;29;20217;-78
2022/02/11 14:18:46;;;;;;;1.03;0.73;;;;;;;7.93;73.99;100123.16;4924230;29;20194;-76
2022/02/11 14:21:17;;;;;;;1.27;0.70;;;;;;;7.98;74.68;100144.72;4906411;29;20210;-77
2022/02/11 14:23:44;;;;;;;1.53;0.97;;;;;;;8.00;72.66;100128.53;4923993;29;20266;-79
2022/02/11 14:26:11;;;;;;;1.90;0.90;;;;;;;7.99;70.99;100141.06;4923260;29;20190;-76
2022/02/11 14:28:37;;;;;;;1.50;1.40;;;;;;;7.98;71.46;100145.56;4906382;29;20187;-79
2022/02/11 14:31:05;;;;;;;2.07;0.90;;;;;;;8.07;70.00;100153.47;4905855;29;20232;-81
2022/02/11 14:33:31;;;;;;;1.27;0.90;;;;;;;7.85;68.89;100153.44;4922195;29;20213;-77
2022/02/11 14:35:58;;;;;;;1.37;0.70;;;;;;;7.80;68.94;100152.34;4923942;29;20273;-81
2022/02/11 14:38:27;;;;;;;1.50;0.90;;;;;;;7.71;70.54;100148.16;4923704;29;20198;-80
2022/02/11 14:43:39;;;;;;;1.60;1.00;;;;;;;7.69;71.08;100152.84;4909155;29;20274;-76
2022/02/11 14:46:06;;;;;;;1.43;0.97;;;;;;;7.72;72.24;100173.81;4924007;29;20190;-79
2022/02/11 14:48:32;;;;;;;1.30;1.00;;;;;;;7.62;72.12;100175.94;4906231;29;20225;-79
2022/02/11 14:51:01;;;;;;;1.33;0.90;;;;;;;7.49;70.69;100184.63;4906508;29;20229;-77
2022/02/11 14:53:28;;;;;;;3.73;1.20;;;;;;;7.48;68.62;100189.13;4922937;29;20226;-77
2022/02/11 14:55:55;;;;;;;0.80;0.73;;;;;;;7.44;68.80;100189.69;4922721;29;20236;-80
2022/02/11 14:58:21;;;;;;;0.63;0.60;;;;;;;7.42;69.33;100192.50;4923857;29;20662;-79
2022/02/11 15:00:48;;;;;;;0.77;0.70;;;;;;;7.39;70.05;100202.72;4923023;29;20221;-76
2022/02/11 15:03:15;;;;;;;2.10;0.90;;;;;;;7.33;71.44;100209.63;4923195;29;20203;-77
2022/02/11 15:05:41;;;;;;;0.93;0.73;;;;;;;7.29;72.60;100213.66;4924026;29;20277;-78
2022/02/11 15:08:08;;;;;;;1.20;1.10;;;;;;;7.26;74.44;100224.72;4922861;29;20290;-77
2022/02/11 15:10:36;;;;;;;2.13;1.00;;;;;;;7.24;74.60;100207.22;4906104;29;20191;-77
2022/02/11 15:13:08;;;;;;;1.13;0.90;;;;;;;7.22;72.85;100226.09;4922560;29;20277;-79
2022/02/11 15:15:37;;;;;;;1.47;0.90;;;;;;;7.28;71.78;100232.53;4923049;29;20190;-77
2022/02/11 15:18:05;;;;;;;0.83;0.70;;;;;;;7.11;69.94;100233.69;4923240;29;20190;-82
2022/02/11 15:20:34;;;;;;;0.87;0.70;;;;;;;7.01;68.82;100234.78;4923188;29;20195;-77
2022/02/11 15:23:01;;;;;;;0.90;0.80;;;;;;;7.03;68.29;100262.09;4906753;29;20201;-77
2022/02/11 15:25:28;;;;;;;0.80;0.80;;;;;;;6.96;69.09;100247.00;4922971;29;20218;-78
2022/02/11 15:27:55;;;;;;;1.73;1.00;;;;;;;6.86;67.17;100254.44;4923520;29;20197;-78
2022/02/11 15:30:23;;;;;;;0.70;0.70;;;;;;;6.87;67.05;100251.56;4907122;29;20218;-77
2022/02/11 15:32:50;;;;;;;0.80;0.70;;;;;;;6.83;67.18;100258.28;4923694;29;20551;-78
2022/02/11 15:35:17;;;;;;;1.67;0.90;;;;;;;6.69;68.25;100274.22;4906579;29;20260;-77
2022/02/11 15:37:43;;;;;;;1.13;0.70;;;;;;;6.82;66.22;100274.44;4906567;29;20285;-77